createdAt,value
2023-03-11T00:00:14.103Z,99.90
2023-03-11T00:02:41.175Z,99.90
2023-03-11T00:05:09.424Z,99.90
2023-03-11T00:07:37.994Z,99.90
2023-03-11T00:10:05.341Z,99.90
2023-03-11T00:12:32.341Z,99.90
2023-03-11T00:14:59.015Z,99.90
2023-03-11T00:17:25.830Z,99.90
2023-03-11T00:19:54.064Z,99.90
2023-03-11T00:22:20.690Z,99.90
2023-03-11T00:24:47.907Z,99.90
2023-03-11T00:27:17.637Z,99.90
2023-03-11T00:29:44.698Z,99.90
2023-03-11T00:32:12.057Z,99.90
2023-03-11T00:34:38.912Z,99.90
2023-03-11T00:37:05.614Z,99.90
2023-03-11T00:39:32.719Z,99.90
2023-03-11T00:41:59.828Z,99.90
2023-03-11T00:44:26.516Z,99.90
2023-03-11T00:46:53.823Z,99.90
2023-03-11T00:49:21.496Z,99.90
2023-03-11T00:51:48.174Z,99.90
2023-03-11T00:54:15.041Z,99.90
2023-03-11T00:56:41.825Z,99.90
2023-03-11T00:59:08.847Z,99.90
2023-03-11T01:01:35.595Z,99.90
2023-03-11T01:04:02.478Z,99.90
2023-03-11T01:06:39.186Z,99.90
2023-03-11T01:09:11.377Z,99.90
2023-03-11T01:11:38.316Z,99.90
2023-03-11T01:14:04.995Z,99.90
2023-03-11T01:16:31.783Z,99.90
2023-03-11T01:18:58.525Z,99.90
2023-03-11T01:21:25.327Z,99.90
2023-03-11T01:23:52.189Z,99.90
2023-03-11T01:26:18.898Z,99.90
2023-03-11T01:28:45.577Z,99.90
2023-03-11T01:31:12.911Z,99.90
2023-03-11T01:33:40.350Z,99.90
2023-03-11T01:36:07.499Z,99.90
2023-03-11T01:38:35.818Z,99.90
2023-03-11T01:41:02.939Z,99.90
2023-03-11T01:43:56.454Z,99.90
2023-03-11T01:46:54.582Z,99.90
2023-03-11T01:49:22.507Z,99.90
2023-03-11T01:51:52.309Z,99.90
2023-03-11T01:54:23.340Z,99.90
2023-03-11T01:56:51.640Z,99.90
2023-03-11T01:59:22.582Z,99.90
2023-03-11T02:01:58.730Z,99.90
2023-03-11T02:04:27.489Z,99.90
2023-03-11T02:06:55.964Z,99.90
2023-03-11T02:09:24.116Z,99.90
2023-03-11T02:11:52.227Z,99.90
2023-03-11T02:14:19.424Z,99.90
2023-03-11T02:16:46.328Z,99.90
2023-03-11T02:19:41.522Z,99.90
2023-03-11T02:22:10.321Z,99.90
2023-03-11T02:25:03.636Z,99.90
2023-03-11T02:27:33.437Z,99.90
2023-03-11T02:30:01.515Z,99.90
2023-03-11T02:32:28.903Z,99.90
2023-03-11T02:34:55.662Z,99.90
2023-03-11T02:37:22.671Z,99.90
2023-03-11T02:39:52.175Z,99.90
2023-03-11T02:42:29.271Z,99.90
2023-03-11T02:45:01.307Z,99.90
2023-03-11T02:47:28.311Z,99.90
2023-03-11T02:49:56.949Z,99.90
2023-03-11T02:52:27.778Z,99.90
2023-03-11T02:54:54.927Z,99.90
2023-03-11T02:57:22.027Z,99.90
2023-03-11T02:59:49.747Z,99.90
2023-03-11T03:02:17.170Z,99.90
2023-03-11T03:04:44.863Z,99.90
2023-03-11T03:07:12.075Z,99.90
2023-03-11T03:09:38.926Z,99.90
2023-03-11T03:12:06.367Z,99.90
2023-03-11T03:14:33.738Z,99.90
2023-03-11T03:17:01.040Z,99.90
2023-03-11T03:19:28.425Z,99.90
2023-03-11T03:21:55.801Z,99.90
2023-03-11T03:24:22.733Z,99.90
2023-03-11T03:26:49.591Z,99.90
2023-03-11T03:29:16.582Z,99.90
2023-03-11T03:31:43.603Z,99.90
2023-03-11T03:34:11.145Z,99.90
2023-03-11T03:36:38.150Z,99.90
2023-03-11T03:39:05.780Z,99.90
2023-03-11T03:41:32.907Z,99.90
2023-03-11T03:43:59.849Z,99.90
2023-03-11T03:46:26.758Z,99.90
2023-03-11T03:48:54.873Z,99.90
2023-03-11T03:51:21.808Z,99.90
2023-03-11T03:53:48.734Z,99.90
2023-03-11T03:56:17.673Z,99.90
2023-03-11T03:58:46.158Z,99.90
2023-03-11T04:01:13.757Z,99.90
2023-03-11T04:03:40.937Z,99.90
2023-03-11T04:06:17.432Z,99.90
2023-03-11T04:08:44.712Z,99.90
2023-03-11T04:11:12.514Z,99.90
2023-03-11T04:13:39.728Z,99.90
2023-03-11T04:16:08.016Z,99.90
2023-03-11T04:18:35.555Z,99.90
2023-03-11T04:21:07.138Z,99.90
2023-03-11T04:23:34.596Z,99.90
2023-03-11T04:26:01.781Z,99.90
2023-03-11T04:28:28.774Z,99.90
2023-03-11T04:30:55.900Z,99.90
2023-03-11T04:33:22.957Z,99.90
2023-03-11T04:35:50.049Z,99.90
2023-03-11T04:38:17.919Z,99.90
2023-03-11T04:40:44.852Z,99.90
2023-03-11T04:43:11.862Z,99.90
2023-03-11T04:45:40.250Z,99.90
2023-03-11T04:48:07.503Z,99.90
2023-03-11T04:50:35.078Z,99.90
2023-03-11T04:53:02.142Z,99.90
2023-03-11T04:55:29.085Z,99.90
2023-03-11T04:57:56.010Z,99.90
2023-03-11T05:00:25.015Z,99.90
2023-03-11T05:02:52.537Z,99.90
2023-03-11T05:05:20.418Z,99.90
2023-03-11T05:07:48.292Z,99.90
2023-03-11T05:10:22.213Z,99.90
2023-03-11T05:12:50.667Z,99.90
2023-03-11T05:15:18.206Z,99.90
2023-03-11T05:17:46.092Z,99.90
2023-03-11T05:20:15.628Z,99.90
2023-03-11T05:22:42.906Z,99.90
2023-03-11T05:25:10.350Z,99.90
2023-03-11T05:27:37.208Z,99.90
2023-03-11T05:30:04.945Z,99.90
2023-03-11T05:32:31.843Z,99.90
2023-03-11T05:34:58.858Z,99.90
2023-03-11T05:37:25.803Z,99.90
2023-03-11T05:39:53.102Z,99.90
2023-03-11T05:42:21.496Z,99.90
2023-03-11T05:44:48.825Z,99.90
2023-03-11T05:47:17.811Z,99.90
2023-03-11T05:49:46.827Z,99.90
2023-03-11T05:52:13.826Z,99.90
2023-03-11T05:54:40.822Z,99.90
2023-03-11T05:57:07.657Z,99.90
2023-03-11T05:59:35.696Z,99.90
2023-03-11T06:02:02.653Z,99.90
2023-03-11T06:04:30.009Z,99.90
2023-03-11T06:06:57.081Z,99.90
2023-03-11T06:09:24.129Z,99.90
2023-03-11T06:11:51.068Z,99.90
2023-03-11T06:14:18.600Z,99.90
2023-03-11T06:16:46.066Z,99.90
2023-03-11T06:19:13.330Z,99.90
2023-03-11T06:21:40.548Z,99.90
2023-03-11T06:24:09.638Z,99.90
2023-03-11T06:26:36.508Z,99.90
2023-03-11T06:29:03.524Z,99.90
2023-03-11T06:31:31.990Z,99.90
2023-03-11T06:33:59.494Z,99.90
2023-03-11T06:36:26.450Z,99.90
2023-03-11T06:38:54.644Z,99.90
2023-03-11T06:41:21.731Z,99.90
2023-03-11T06:43:48.729Z,99.90
2023-03-11T06:46:18.336Z,99.90
2023-03-11T06:48:46.586Z,99.90
2023-03-11T06:51:13.938Z,99.90
2023-03-11T06:53:40.880Z,99.90
2023-03-11T06:56:12.754Z,99.90
2023-03-11T06:58:41.692Z,99.90
2023-03-11T07:01:28.192Z,99.90
2023-03-11T07:03:55.132Z,99.90
2023-03-11T07:06:26.083Z,99.90
2023-03-11T07:08:53.588Z,99.90
2023-03-11T07:11:24.333Z,99.90
2023-03-11T07:13:52.234Z,99.90
2023-03-11T07:16:22.540Z,99.90
2023-03-11T07:18:50.972Z,99.90
2023-03-11T07:21:20.417Z,99.90
2023-03-11T07:23:49.294Z,99.90
2023-03-11T07:26:17.890Z,99.90
2023-03-11T07:28:45.236Z,99.90
2023-03-11T07:31:33.750Z,99.90
2023-03-11T07:34:03.698Z,99.90
2023-03-11T07:36:31.476Z,99.90
2023-03-11T07:39:05.071Z,99.90
2023-03-11T07:41:34.378Z,99.90
2023-03-11T07:44:02.498Z,99.90
2023-03-11T07:46:30.548Z,99.90
2023-03-11T07:48:57.552Z,99.90
2023-03-11T07:51:28.022Z,99.90
2023-03-11T07:53:56.337Z,99.90
2023-03-11T07:56:25.423Z,99.90
2023-03-11T07:58:53.161Z,99.90
2023-03-11T08:01:23.401Z,99.90
2023-03-11T08:03:56.971Z,99.90
2023-03-11T08:06:27.141Z,99.90
2023-03-11T08:08:54.166Z,99.90
2023-03-11T08:11:21.469Z,99.90
2023-03-11T08:13:49.840Z,99.90
2023-03-11T08:16:19.513Z,99.90
2023-03-11T08:18:48.204Z,99.90
2023-03-11T08:21:24.174Z,99.90
2023-03-11T08:23:52.088Z,99.90
2023-03-11T08:26:21.868Z,99.90
2023-03-11T08:28:49.973Z,99.90
2023-03-11T08:31:19.640Z,99.90
2023-03-11T08:33:49.936Z,99.90
2023-03-11T08:36:18.191Z,99.90
2023-03-11T08:38:45.535Z,99.90
2023-03-11T08:41:12.612Z,99.90
2023-03-11T08:43:39.817Z,99.90
2023-03-11T08:46:07.189Z,99.90
2023-03-11T08:48:36.312Z,99.90
2023-03-11T08:51:09.127Z,99.90
2023-03-11T08:53:37.703Z,99.90
2023-03-11T08:56:05.902Z,99.90
2023-03-11T08:58:35.300Z,99.90
2023-03-11T09:01:02.611Z,99.90
2023-03-11T09:03:32.826Z,99.90
2023-03-11T09:06:01.928Z,99.90
2023-03-11T09:08:29.472Z,99.90
2023-03-11T09:10:56.437Z,99.90
2023-03-11T09:13:23.888Z,99.90
2023-03-11T09:15:51.818Z,99.90
2023-03-11T09:18:20.253Z,99.90
2023-03-11T09:20:47.224Z,99.90
2023-03-11T09:23:16.132Z,99.90
2023-03-11T09:25:43.113Z,99.90
2023-03-11T09:28:10.066Z,99.90
2023-03-11T09:30:37.013Z,99.90
2023-03-11T09:33:03.941Z,99.90
2023-03-11T09:35:31.052Z,99.90
2023-03-11T09:37:57.906Z,99.90
2023-03-11T09:40:27.149Z,99.90
2023-03-11T09:43:03.107Z,99.90
2023-03-11T09:45:38.617Z,99.90
2023-03-11T09:48:18.249Z,99.90
2023-03-11T09:50:45.176Z,99.90
2023-03-11T09:53:18.978Z,99.90
2023-03-11T09:55:45.965Z,99.90
2023-03-11T09:58:27.663Z,99.90
2023-03-11T10:00:55.166Z,99.90
2023-03-11T10:03:39.382Z,99.90
2023-03-11T10:06:12.794Z,99.90
2023-03-11T10:08:45.682Z,99.90
2023-03-11T10:11:32.729Z,99.90
2023-03-11T10:14:15.939Z,99.90
2023-03-11T10:16:50.120Z,99.90
2023-03-11T10:19:38.020Z,99.90
2023-03-11T10:22:19.772Z,99.90
2023-03-11T10:25:02.521Z,99.90
2023-03-11T10:27:55.801Z,99.90
2023-03-11T10:30:43.615Z,94.90
2023-03-11T10:33:49.980Z,95.90
2023-03-11T10:36:24.278Z,99.90
2023-03-11T10:38:53.352Z,99.90
2023-03-11T10:41:42.110Z,98.90
2023-03-11T10:44:30.969Z,99.90
2023-03-11T10:46:57.598Z,92.80
2023-03-11T10:49:24.894Z,96.80
2023-03-11T10:51:53.398Z,98.30
2023-03-11T10:54:32.779Z,96.70
2023-03-11T10:57:01.870Z,96.00
2023-03-11T10:59:58.953Z,93.40
2023-03-11T11:02:51.789Z,92.60
2023-03-11T11:05:18.695Z,93.20
2023-03-11T11:07:46.743Z,95.80
2023-03-11T11:10:17.312Z,95.80
2023-03-11T11:12:59.404Z,93.40
2023-03-11T11:15:34.051Z,94.70
2023-03-11T11:18:05.248Z,91.00
2023-03-11T11:20:34.134Z,74.40
2023-03-11T11:23:03.697Z,89.80
2023-03-11T11:25:38.555Z,86.10
2023-03-11T11:28:19.675Z,83.30
2023-03-11T11:31:18.807Z,78.10
2023-03-11T11:33:51.320Z,66.30
2023-03-11T11:36:19.118Z,57.60
2023-03-11T11:38:45.837Z,71.00
2023-03-11T11:41:20.506Z,74.20
2023-03-11T11:43:58.927Z,78.90
2023-03-11T11:46:37.541Z,67.60
2023-03-11T11:49:25.576Z,65.70
2023-03-11T11:52:12.528Z,72.40
2023-03-11T11:54:50.344Z,67.50
2023-03-11T11:57:20.388Z,67.10
2023-03-11T11:59:47.593Z,78.00
2023-03-11T12:02:23.269Z,67.40
2023-03-11T12:04:56.185Z,59.50
2023-03-11T12:07:49.706Z,67.00
2023-03-11T12:10:54.249Z,70.40
2023-03-11T12:13:55.642Z,58.90
2023-03-11T12:16:57.157Z,77.90
2023-03-11T12:19:33.680Z,63.20
2023-03-11T12:22:16.862Z,63.60
2023-03-11T12:25:11.569Z,63.20
2023-03-11T12:28:26.326Z,59.20
2023-03-11T12:30:56.488Z,58.50
2023-03-11T12:33:48.813Z,59.30
2023-03-11T12:36:34.873Z,59.20
2023-03-11T12:39:05.930Z,53.00
2023-03-11T12:41:36.770Z,54.10
2023-03-11T12:44:23.145Z,54.90
2023-03-11T12:47:01.639Z,50.30
2023-03-11T12:49:34.071Z,51.40
2023-03-11T12:52:06.923Z,44.90
2023-03-11T12:54:36.189Z,46.10
2023-03-11T12:57:16.188Z,47.90
2023-03-11T13:00:22.952Z,50.80
2023-03-11T13:03:11.374Z,41.70
2023-03-11T13:06:04.036Z,48.40
2023-03-11T13:08:49.840Z,43.60
2023-03-11T13:11:49.882Z,44.30
2023-03-11T13:14:32.866Z,45.90
2023-03-11T13:17:26.358Z,44.30
2023-03-11T13:19:56.577Z,44.60
2023-03-11T13:22:52.667Z,43.20
2023-03-11T13:25:30.050Z,40.10
2023-03-11T13:28:11.727Z,42.00
2023-03-11T13:30:45.567Z,43.20
2023-03-11T13:33:48.836Z,39.60
2023-03-11T13:36:29.724Z,40.70
2023-03-11T13:39:20.409Z,44.80
2023-03-11T13:41:48.039Z,40.60
2023-03-11T13:44:26.729Z,37.70
2023-03-11T13:47:00.073Z,39.10
2023-03-11T13:49:40.062Z,36.80
2023-03-11T13:52:13.474Z,36.60
2023-03-11T13:54:55.552Z,39.60
2023-03-11T13:57:36.925Z,38.60
2023-03-11T14:00:17.821Z,36.90
2023-03-11T14:02:54.274Z,40.70
2023-03-11T14:05:35.716Z,38.60
2023-03-11T14:08:37.958Z,36.20
2023-03-11T14:11:10.826Z,40.50
2023-03-11T14:13:43.100Z,42.40
2023-03-11T14:16:13.614Z,39.50
2023-03-11T14:18:42.224Z,39.90
2023-03-11T14:21:20.432Z,38.20
2023-03-11T14:23:53.090Z,41.10
2023-03-11T14:26:26.512Z,37.80
2023-03-11T14:28:57.054Z,39.10
2023-03-11T14:31:31.607Z,37.10
2023-03-11T14:34:04.303Z,37.20
2023-03-11T14:36:40.459Z,38.60
2023-03-11T14:39:26.556Z,33.40
2023-03-11T14:42:01.925Z,36.30
2023-03-11T14:44:30.913Z,38.60
2023-03-11T14:47:09.441Z,38.10
2023-03-11T14:49:37.430Z,39.30
2023-03-11T14:52:15.118Z,34.50
2023-03-11T14:54:42.797Z,35.40
2023-03-11T14:57:37.444Z,37.20
2023-03-11T15:00:10.097Z,34.80
2023-03-11T15:02:45.478Z,37.40
2023-03-11T15:05:27.050Z,37.00
2023-03-11T15:08:00.428Z,38.00
2023-03-11T15:10:27.616Z,39.20
2023-03-11T15:13:15.333Z,37.70
2023-03-11T15:15:42.272Z,40.10
2023-03-11T15:18:25.315Z,43.00
2023-03-11T15:21:13.621Z,41.20
2023-03-11T15:23:50.107Z,40.60
2023-03-11T15:26:32.172Z,40.70
2023-03-11T15:29:15.868Z,42.10
2023-03-11T15:31:46.817Z,45.40
2023-03-11T15:34:16.820Z,46.20
2023-03-11T15:36:49.664Z,45.70
2023-03-11T15:39:20.665Z,45.40
2023-03-11T15:42:13.666Z,45.10
2023-03-11T15:44:50.055Z,44.00
2023-03-11T15:47:20.121Z,48.00
2023-03-11T15:49:47.760Z,46.20
2023-03-11T15:52:15.371Z,46.70
2023-03-11T15:54:45.695Z,46.90
2023-03-11T15:57:26.271Z,44.40
2023-03-11T15:59:56.433Z,45.10
2023-03-11T16:02:26.211Z,47.40
2023-03-11T16:04:53.832Z,47.00
2023-03-11T16:07:36.516Z,44.30
2023-03-11T16:10:06.133Z,46.20
2023-03-11T16:12:33.584Z,45.50
2023-03-11T16:15:00.576Z,47.10
2023-03-11T16:17:39.493Z,44.70
2023-03-11T16:20:14.020Z,49.50
2023-03-11T16:22:41.182Z,48.60
2023-03-11T16:25:18.565Z,46.60
2023-03-11T16:27:45.931Z,48.10
2023-03-11T16:30:16.607Z,46.30
2023-03-11T16:32:43.725Z,48.20
2023-03-11T16:35:11.867Z,48.70
2023-03-11T16:37:39.908Z,47.80
2023-03-11T16:40:07.275Z,49.50
2023-03-11T16:42:34.176Z,49.70
2023-03-11T16:45:03.497Z,49.40
2023-03-11T16:47:30.837Z,50.70
2023-03-11T16:49:57.717Z,50.50
2023-03-11T16:52:24.663Z,51.20
2023-03-11T16:54:52.001Z,49.60
2023-03-11T16:57:18.898Z,51.70
2023-03-11T16:59:46.454Z,52.00
2023-03-11T17:02:13.384Z,51.30
2023-03-11T17:04:40.536Z,52.40
2023-03-11T17:07:08.469Z,53.50
2023-03-11T17:09:37.695Z,55.70
2023-03-11T17:12:06.196Z,55.80
2023-03-11T17:14:33.115Z,59.30
2023-03-11T17:17:00.194Z,61.10
2023-03-11T17:19:27.445Z,63.30
2023-03-11T17:21:54.436Z,69.70
2023-03-11T17:24:21.306Z,74.70
2023-03-11T17:26:48.172Z,79.90
2023-03-11T17:29:16.568Z,85.40
2023-03-11T17:31:46.140Z,88.90
2023-03-11T17:34:14.594Z,92.90
2023-03-11T17:36:41.523Z,94.80
2023-03-11T17:39:08.572Z,98.90
2023-03-11T17:41:37.519Z,99.90
2023-03-11T17:44:04.688Z,99.90
2023-03-11T17:46:31.674Z,99.90
2023-03-11T17:48:58.718Z,99.90
2023-03-11T17:51:26.463Z,99.90
2023-03-11T17:53:54.914Z,99.90
2023-03-11T17:56:22.551Z,99.90
2023-03-11T17:58:50.544Z,99.90
2023-03-11T18:01:23.381Z,99.90
2023-03-11T18:03:51.035Z,99.90
2023-03-11T18:06:19.933Z,99.90
2023-03-11T18:08:46.828Z,99.90
2023-03-11T18:11:18.945Z,99.90
2023-03-11T18:13:46.764Z,99.90
2023-03-11T18:16:16.647Z,99.90
2023-03-11T18:18:44.234Z,99.90
2023-03-11T18:21:16.486Z,99.90
2023-03-11T18:23:44.058Z,99.90
2023-03-11T18:26:14.075Z,99.90
2023-03-11T18:28:41.786Z,99.90
2023-03-11T18:31:18.022Z,99.90
2023-03-11T18:33:56.540Z,99.90
2023-03-11T18:36:31.978Z,99.90
2023-03-11T18:39:00.559Z,99.90
2023-03-11T18:41:30.973Z,99.90
2023-03-11T18:43:58.768Z,99.90
2023-03-11T18:46:28.607Z,99.90
2023-03-11T18:48:59.868Z,99.90
2023-03-11T18:51:28.576Z,99.90
2023-03-11T18:53:55.626Z,99.90
2023-03-11T18:56:22.512Z,99.90
2023-03-11T18:58:50.136Z,99.90
2023-03-11T19:01:19.637Z,99.90
2023-03-11T19:03:57.646Z,99.90
2023-03-11T19:06:29.504Z,99.90
2023-03-11T19:09:00.824Z,99.90
2023-03-11T19:11:27.913Z,99.90
2023-03-11T19:13:55.402Z,99.90
2023-03-11T19:16:24.503Z,99.90
2023-03-11T19:18:53.832Z,99.90
2023-03-11T19:21:20.908Z,99.90
2023-03-11T19:23:51.539Z,99.90
2023-03-11T19:26:18.459Z,99.90
2023-03-11T19:28:45.247Z,99.90
2023-03-11T19:31:12.438Z,99.90
2023-03-11T19:33:39.902Z,99.90
2023-03-11T19:36:07.543Z,99.90
2023-03-11T19:38:35.290Z,99.90
2023-03-11T19:41:14.552Z,99.90
2023-03-11T19:43:42.197Z,99.90
2023-03-11T19:46:12.379Z,99.90
2023-03-11T19:48:39.464Z,99.90
2023-03-11T19:51:06.987Z,99.90
2023-03-11T19:53:35.958Z,99.90
2023-03-11T19:56:04.795Z,99.90
2023-03-11T19:58:32.563Z,99.90
2023-03-11T20:01:01.073Z,99.90
2023-03-11T20:03:29.482Z,99.90
2023-03-11T20:05:58.117Z,99.90
2023-03-11T20:08:25.690Z,99.90
2023-03-11T20:10:53.754Z,99.90
2023-03-11T20:13:22.917Z,99.90
2023-03-11T20:15:50.332Z,99.90
2023-03-11T20:18:18.208Z,99.90
2023-03-11T20:20:45.780Z,99.90
2023-03-11T20:23:13.058Z,99.90
2023-03-11T20:25:41.087Z,99.90
2023-03-11T20:28:08.647Z,99.90
2023-03-11T20:30:38.429Z,99.90
2023-03-11T20:33:06.029Z,99.90
2023-03-11T20:35:33.571Z,99.90
2023-03-11T20:38:00.677Z,99.90
2023-03-11T20:40:27.577Z,99.90
2023-03-11T20:42:54.491Z,99.90
2023-03-11T20:45:22.038Z,99.90
2023-03-11T20:47:50.724Z,99.90
2023-03-11T20:50:18.093Z,99.90
2023-03-11T20:52:44.971Z,99.90
2023-03-11T20:55:12.751Z,99.90
2023-03-11T20:57:40.615Z,99.90
2023-03-11T21:00:12.088Z,99.90
2023-03-11T21:02:40.725Z,99.90
2023-03-11T21:05:09.928Z,99.90
2023-03-11T21:07:36.891Z,99.90
2023-03-11T21:10:06.635Z,99.90
2023-03-11T21:12:33.814Z,99.90
2023-03-11T21:15:01.016Z,99.90
2023-03-11T21:17:28.657Z,99.90
2023-03-11T21:19:56.001Z,99.90
2023-03-11T21:22:22.986Z,99.90
2023-03-11T21:24:54.177Z,99.90
2023-03-11T21:27:26.201Z,99.90
2023-03-11T21:29:57.286Z,99.90
2023-03-11T21:32:26.241Z,99.90
2023-03-11T21:34:57.819Z,99.90
2023-03-11T21:37:25.413Z,99.90
2023-03-11T21:39:52.832Z,99.90
2023-03-11T21:42:20.211Z,99.90
2023-03-11T21:44:47.722Z,99.90
2023-03-11T21:47:14.658Z,99.90
2023-03-11T21:49:41.764Z,99.90
2023-03-11T21:52:08.941Z,99.90
2023-03-11T21:54:36.287Z,99.90
2023-03-11T21:57:03.429Z,99.90
2023-03-11T21:59:31.380Z,99.90
2023-03-11T22:02:02.733Z,99.90
2023-03-11T22:04:30.917Z,99.90
2023-03-11T22:06:57.994Z,99.90
2023-03-11T22:09:26.272Z,99.90
2023-03-11T22:11:53.813Z,99.90
2023-03-11T22:14:20.862Z,99.90
2023-03-11T22:16:48.157Z,99.90
2023-03-11T22:19:15.121Z,99.90
2023-03-11T22:21:42.443Z,99.90
2023-03-11T22:24:09.907Z,99.90
2023-03-11T22:26:36.930Z,99.90
2023-03-11T22:29:04.286Z,99.90
2023-03-11T22:31:31.675Z,99.90
2023-03-11T22:33:58.886Z,99.90
2023-03-11T22:36:25.868Z,99.90
2023-03-11T22:38:52.795Z,99.90
2023-03-11T22:41:20.398Z,99.90
2023-03-11T22:43:47.739Z,99.90
2023-03-11T22:46:14.862Z,99.90
2023-03-11T22:48:42.189Z,99.90
2023-03-11T22:51:09.840Z,99.90
2023-03-11T22:53:36.833Z,99.90
2023-03-11T22:56:11.973Z,99.90
2023-03-11T22:58:39.440Z,99.90
2023-03-11T23:01:07.217Z,99.90
2023-03-11T23:03:35.337Z,99.90
2023-03-11T23:06:05.647Z,99.90
2023-03-11T23:08:32.793Z,99.90
2023-03-11T23:11:04.673Z,99.90
2023-03-11T23:13:32.401Z,99.90
2023-03-11T23:16:04.655Z,99.90
2023-03-11T23:18:31.603Z,99.90
2023-03-11T23:20:58.805Z,99.90
2023-03-11T23:23:25.838Z,99.90
2023-03-11T23:25:53.330Z,99.90
2023-03-11T23:28:20.580Z,99.90
2023-03-11T23:30:47.726Z,99.90
2023-03-11T23:33:14.668Z,99.90
2023-03-11T23:35:42.896Z,99.90
2023-03-11T23:38:09.979Z,99.90
2023-03-11T23:40:36.958Z,99.90
2023-03-11T23:43:04.018Z,99.90
2023-03-11T23:45:30.908Z,99.90
2023-03-11T23:47:57.768Z,99.90
2023-03-11T23:50:24.701Z,99.90
2023-03-11T23:52:51.681Z,99.90
2023-03-11T23:55:18.744Z,99.90
2023-03-11T23:57:45.613Z,99.90
